sensor_id;sensor_type;location;lat;lon;timestamp;P1;durP1;ratioP1;P2;durP2;ratioP2
16900;SDS011;8567;52.540;6.434;2024-02-23T00:00:27;2.13;;;2.03;;
16900;SDS011;8567;52.540;6.434;2024-02-23T00:02:54;1.90;;;1.80;;
16900;SDS011;8567;52.540;6.434;2024-02-23T00:05:22;1.98;;;1.88;;
16900;SDS011;8567;52.540;6.434;2024-02-23T00:07:49;2.00;;;1.90;;
16900;SDS011;8567;52.540;6.434;2024-02-23T00:10:16;1.73;;;1.73;;
16900;SDS011;8567;52.540;6.434;2024-02-23T00:12:43;1.88;;;1.77;;
16900;SDS011;8567;52.540;6.434;2024-02-23T00:15:14;1.90;;;1.80;;
16900;SDS011;8567;52.540;6.434;2024-02-23T00:17:41;1.85;;;1.80;;
16900;SDS011;8567;52.540;6.434;2024-02-23T00:20:08;2.00;;;1.90;;
16900;SDS011;8567;52.540;6.434;2024-02-23T00:22:36;1.90;;;1.80;;
16900;SDS011;8567;52.540;6.434;2024-02-23T00:25:03;1.90;;;1.80;;
16900;SDS011;8567;52.540;6.434;2024-02-23T00:27:30;2.00;;;1.90;;
16900;SDS011;8567;52.540;6.434;2024-02-23T00:29:57;2.10;;;2.00;;
16900;SDS011;8567;52.540;6.434;2024-02-23T00:32:25;1.90;;;1.80;;
16900;SDS011;8567;52.540;6.434;2024-02-23T00:34:52;2.17;;;2.08;;
16900;SDS011;8567;52.540;6.434;2024-02-23T00:37:19;1.85;;;1.77;;
16900;SDS011;8567;52.540;6.434;2024-02-23T00:39:46;1.80;;;1.70;;
16900;SDS011;8567;52.540;6.434;2024-02-23T00:42:13;1.90;;;1.80;;
16900;SDS011;8567;52.540;6.434;2024-02-23T00:44:40;2.05;;;1.95;;
16900;SDS011;8567;52.540;6.434;2024-02-23T00:47:07;1.70;;;1.70;;
16900;SDS011;8567;52.540;6.434;2024-02-23T00:49:34;1.80;;;1.70;;
16900;SDS011;8567;52.540;6.434;2024-02-23T00:52:00;2.05;;;1.95;;
16900;SDS011;8567;52.540;6.434;2024-02-23T00:54:27;2.00;;;1.90;;
16900;SDS011;8567;52.540;6.434;2024-02-23T00:56:54;2.00;;;1.90;;
16900;SDS011;8567;52.540;6.434;2024-02-23T00:59:21;1.70;;;1.60;;
16900;SDS011;8567;52.540;6.434;2024-02-23T01:01:48;1.80;;;1.70;;
16900;SDS011;8567;52.540;6.434;2024-02-23T01:04:14;1.90;;;1.80;;
16900;SDS011;8567;52.540;6.434;2024-02-23T01:06:42;2.00;;;1.90;;
16900;SDS011;8567;52.540;6.434;2024-02-23T01:09:09;1.90;;;1.80;;
16900;SDS011;8567;52.540;6.434;2024-02-23T01:11:36;1.98;;;1.88;;
16900;SDS011;8567;52.540;6.434;2024-02-23T01:14:03;1.77;;;1.75;;
16900;SDS011;8567;52.540;6.434;2024-02-23T01:16:30;1.90;;;1.80;;
16900;SDS011;8567;52.540;6.434;2024-02-23T01:18:57;1.55;;;1.55;;
16900;SDS011;8567;52.540;6.434;2024-02-23T01:21:24;1.85;;;1.75;;
16900;SDS011;8567;52.540;6.434;2024-02-23T01:23:52;1.77;;;1.77;;
16900;SDS011;8567;52.540;6.434;2024-02-23T01:26:19;1.73;;;1.63;;
16900;SDS011;8567;52.540;6.434;2024-02-23T01:28:45;1.60;;;1.60;;
16900;SDS011;8567;52.540;6.434;2024-02-23T01:31:12;1.90;;;1.80;;
16900;SDS011;8567;52.540;6.434;2024-02-23T01:33:39;1.90;;;1.80;;
16900;SDS011;8567;52.540;6.434;2024-02-23T01:36:06;1.85;;;1.80;;
16900;SDS011;8567;52.540;6.434;2024-02-23T01:38:33;1.75;;;1.65;;
16900;SDS011;8567;52.540;6.434;2024-02-23T01:41:02;1.60;;;1.60;;
16900;SDS011;8567;52.540;6.434;2024-02-23T01:43:29;1.80;;;1.70;;
16900;SDS011;8567;52.540;6.434;2024-02-23T01:45:56;1.65;;;1.60;;
16900;SDS011;8567;52.540;6.434;2024-02-23T01:48:23;1.80;;;1.70;;
16900;SDS011;8567;52.540;6.434;2024-02-23T01:50:50;1.67;;;1.67;;
16900;SDS011;8567;52.540;6.434;2024-02-23T01:53:17;1.88;;;1.77;;
16900;SDS011;8567;52.540;6.434;2024-02-23T01:55:45;1.60;;;1.50;;
16900;SDS011;8567;52.540;6.434;2024-02-23T01:58:14;1.90;;;1.80;;
16900;SDS011;8567;52.540;6.434;2024-02-23T02:00:41;1.60;;;1.50;;
16900;SDS011;8567;52.540;6.434;2024-02-23T02:03:08;1.83;;;1.73;;
16900;SDS011;8567;52.540;6.434;2024-02-23T02:05:35;1.98;;;1.88;;
16900;SDS011;8567;52.540;6.434;2024-02-23T02:08:02;1.67;;;1.60;;
16900;SDS011;8567;52.540;6.434;2024-02-23T02:10:30;1.60;;;1.60;;
16900;SDS011;8567;52.540;6.434;2024-02-23T02:13:01;1.70;;;1.60;;
16900;SDS011;8567;52.540;6.434;2024-02-23T02:15:29;1.50;;;1.50;;
16900;SDS011;8567;52.540;6.434;2024-02-23T02:17:56;1.70;;;1.60;;
16900;SDS011;8567;52.540;6.434;2024-02-23T02:20:23;1.75;;;1.65;;
16900;SDS011;8567;52.540;6.434;2024-02-23T02:22:51;1.67;;;1.60;;
16900;SDS011;8567;52.540;6.434;2024-02-23T02:25:18;1.60;;;1.60;;
16900;SDS011;8567;52.540;6.434;2024-02-23T02:27:45;1.70;;;1.60;;
16900;SDS011;8567;52.540;6.434;2024-02-23T02:30:12;1.80;;;1.70;;
16900;SDS011;8567;52.540;6.434;2024-02-23T02:32:41;1.63;;;1.58;;
16900;SDS011;8567;52.540;6.434;2024-02-23T02:35:09;1.52;;;1.52;;
16900;SDS011;8567;52.540;6.434;2024-02-23T02:37:36;1.80;;;1.70;;
16900;SDS011;8567;52.540;6.434;2024-02-23T02:40:04;1.50;;;1.50;;
16900;SDS011;8567;52.540;6.434;2024-02-23T02:42:32;1.55;;;1.55;;
16900;SDS011;8567;52.540;6.434;2024-02-23T02:44:59;1.88;;;1.80;;
16900;SDS011;8567;52.540;6.434;2024-02-23T02:47:25;1.40;;;1.40;;
16900;SDS011;8567;52.540;6.434;2024-02-23T02:49:54;1.90;;;1.80;;
16900;SDS011;8567;52.540;6.434;2024-02-23T02:52:20;1.65;;;1.55;;
16900;SDS011;8567;52.540;6.434;2024-02-23T02:54:48;1.40;;;1.40;;
16900;SDS011;8567;52.540;6.434;2024-02-23T02:57:15;1.40;;;1.40;;
16900;SDS011;8567;52.540;6.434;2024-02-23T02:59:42;1.42;;;1.42;;
16900;SDS011;8567;52.540;6.434;2024-02-23T03:02:09;1.42;;;1.42;;
16900;SDS011;8567;52.540;6.434;2024-02-23T03:04:36;1.75;;;1.65;;
16900;SDS011;8567;52.540;6.434;2024-02-23T03:07:04;1.63;;;1.50;;
16900;SDS011;8567;52.540;6.434;2024-02-23T03:09:31;1.83;;;1.73;;
16900;SDS011;8567;52.540;6.434;2024-02-23T03:11:58;1.50;;;1.50;;
16900;SDS011;8567;52.540;6.434;2024-02-23T03:14:25;1.50;;;1.50;;
16900;SDS011;8567;52.540;6.434;2024-02-23T03:16:52;1.60;;;1.50;;
16900;SDS011;8567;52.540;6.434;2024-02-23T03:19:18;1.75;;;1.70;;
16900;SDS011;8567;52.540;6.434;2024-02-23T03:21:47;1.50;;;1.50;;
16900;SDS011;8567;52.540;6.434;2024-02-23T03:24:15;1.48;;;1.48;;
16900;SDS011;8567;52.540;6.434;2024-02-23T03:26:42;1.58;;;1.50;;
16900;SDS011;8567;52.540;6.434;2024-02-23T03:29:09;1.63;;;1.52;;
16900;SDS011;8567;52.540;6.434;2024-02-23T03:31:36;1.50;;;1.50;;
16900;SDS011;8567;52.540;6.434;2024-02-23T03:34:03;1.40;;;1.40;;
16900;SDS011;8567;52.540;6.434;2024-02-23T03:36:30;1.70;;;1.60;;
16900;SDS011;8567;52.540;6.434;2024-02-23T03:38:57;1.50;;;1.50;;
16900;SDS011;8567;52.540;6.434;2024-02-23T03:41:25;1.60;;;1.60;;
16900;SDS011;8567;52.540;6.434;2024-02-23T03:43:51;1.50;;;1.50;;
16900;SDS011;8567;52.540;6.434;2024-02-23T03:46:18;1.55;;;1.55;;
16900;SDS011;8567;52.540;6.434;2024-02-23T03:48:46;1.52;;;1.52;;
16900;SDS011;8567;52.540;6.434;2024-02-23T03:51:13;1.67;;;1.60;;
16900;SDS011;8567;52.540;6.434;2024-02-23T03:53:40;1.45;;;1.45;;
16900;SDS011;8567;52.540;6.434;2024-02-23T03:56:07;1.70;;;1.60;;
16900;SDS011;8567;52.540;6.434;2024-02-23T03:58:35;1.40;;;1.40;;
16900;SDS011;8567;52.540;6.434;2024-02-23T04:01:02;1.50;;;1.50;;
16900;SDS011;8567;52.540;6.434;2024-02-23T04:03:29;1.67;;;1.60;;
16900;SDS011;8567;52.540;6.434;2024-02-23T04:05:56;1.83;;;1.73;;
16900;SDS011;8567;52.540;6.434;2024-02-23T04:08:23;1.65;;;1.60;;
16900;SDS011;8567;52.540;6.434;2024-02-23T04:10:49;1.60;;;1.60;;
16900;SDS011;8567;52.540;6.434;2024-02-23T04:13:16;1.80;;;1.70;;
16900;SDS011;8567;52.540;6.434;2024-02-23T04:15:45;1.50;;;1.50;;
16900;SDS011;8567;52.540;6.434;2024-02-23T04:18:12;1.58;;;1.55;;
16900;SDS011;8567;52.540;6.434;2024-02-23T04:20:39;1.70;;;1.70;;
16900;SDS011;8567;52.540;6.434;2024-02-23T04:23:06;1.50;;;1.50;;
16900;SDS011;8567;52.540;6.434;2024-02-23T04:25:32;1.42;;;1.42;;
16900;SDS011;8567;52.540;6.434;2024-02-23T04:27:59;1.50;;;1.50;;
16900;SDS011;8567;52.540;6.434;2024-02-23T04:30:26;1.50;;;1.50;;
16900;SDS011;8567;52.540;6.434;2024-02-23T04:32:54;1.60;;;1.60;;
16900;SDS011;8567;52.540;6.434;2024-02-23T04:35:21;1.50;;;1.50;;
16900;SDS011;8567;52.540;6.434;2024-02-23T04:37:47;1.48;;;1.48;;
16900;SDS011;8567;52.540;6.434;2024-02-23T04:40:15;2.00;;;1.90;;
16900;SDS011;8567;52.540;6.434;2024-02-23T04:42:43;1.65;;;1.60;;
16900;SDS011;8567;52.540;6.434;2024-02-23T04:45:09;1.52;;;1.50;;
16900;SDS011;8567;52.540;6.434;2024-02-23T04:47:37;1.60;;;1.60;;
16900;SDS011;8567;52.540;6.434;2024-02-23T04:50:07;1.70;;;1.60;;
16900;SDS011;8567;52.540;6.434;2024-02-23T04:52:35;1.55;;;1.50;;
16900;SDS011;8567;52.540;6.434;2024-02-23T04:55:01;1.80;;;1.70;;
16900;SDS011;8567;52.540;6.434;2024-02-23T04:57:28;1.80;;;1.73;;
16900;SDS011;8567;52.540;6.434;2024-02-23T04:59:56;1.52;;;1.52;;
16900;SDS011;8567;52.540;6.434;2024-02-23T05:02:22;1.80;;;1.70;;
16900;SDS011;8567;52.540;6.434;2024-02-23T05:04:49;1.50;;;1.50;;
16900;SDS011;8567;52.540;6.434;2024-02-23T05:07:17;1.73;;;1.63;;
16900;SDS011;8567;52.540;6.434;2024-02-23T05:09:44;1.75;;;1.65;;
16900;SDS011;8567;52.540;6.434;2024-02-23T05:12:11;1.70;;;1.60;;
16900;SDS011;8567;52.540;6.434;2024-02-23T05:14:38;1.58;;;1.58;;
16900;SDS011;8567;52.540;6.434;2024-02-23T05:17:04;1.60;;;1.50;;
16900;SDS011;8567;52.540;6.434;2024-02-23T05:19:31;1.60;;;1.52;;
16900;SDS011;8567;52.540;6.434;2024-02-23T05:21:58;1.60;;;1.60;;
16900;SDS011;8567;52.540;6.434;2024-02-23T05:24:26;1.50;;;1.40;;
16900;SDS011;8567;52.540;6.434;2024-02-23T05:26:53;1.80;;;1.70;;
16900;SDS011;8567;52.540;6.434;2024-02-23T05:29:20;1.50;;;1.50;;
16900;SDS011;8567;52.540;6.434;2024-02-23T05:31:48;1.60;;;1.50;;
16900;SDS011;8567;52.540;6.434;2024-02-23T05:34:16;1.55;;;1.45;;
16900;SDS011;8567;52.540;6.434;2024-02-23T05:36:43;1.50;;;1.50;;
16900;SDS011;8567;52.540;6.434;2024-02-23T05:39:10;1.88;;;1.77;;
16900;SDS011;8567;52.540;6.434;2024-02-23T05:41:39;1.80;;;1.70;;
16900;SDS011;8567;52.540;6.434;2024-02-23T05:44:06;1.65;;;1.55;;
16900;SDS011;8567;52.540;6.434;2024-02-23T05:46:33;1.45;;;1.45;;
16900;SDS011;8567;52.540;6.434;2024-02-23T05:49:00;1.45;;;1.40;;
16900;SDS011;8567;52.540;6.434;2024-02-23T05:51:27;1.58;;;1.58;;
16900;SDS011;8567;52.540;6.434;2024-02-23T05:53:55;1.70;;;1.60;;
16900;SDS011;8567;52.540;6.434;2024-02-23T05:56:22;1.63;;;1.52;;
16900;SDS011;8567;52.540;6.434;2024-02-23T05:58:51;1.85;;;1.75;;
16900;SDS011;8567;52.540;6.434;2024-02-23T06:01:18;1.50;;;1.50;;
16900;SDS011;8567;52.540;6.434;2024-02-23T06:03:45;1.45;;;1.45;;
16900;SDS011;8567;52.540;6.434;2024-02-23T06:06:12;1.83;;;1.73;;
16900;SDS011;8567;52.540;6.434;2024-02-23T06:08:39;1.65;;;1.55;;
16900;SDS011;8567;52.540;6.434;2024-02-23T06:11:06;1.70;;;1.60;;
16900;SDS011;8567;52.540;6.434;2024-02-23T06:13:36;1.58;;;1.48;;
16900;SDS011;8567;52.540;6.434;2024-02-23T06:16:04;1.70;;;1.60;;
16900;SDS011;8567;52.540;6.434;2024-02-23T06:18:35;1.52;;;1.42;;
16900;SDS011;8567;52.540;6.434;2024-02-23T06:21:10;1.40;;;1.40;;
16900;SDS011;8567;52.540;6.434;2024-02-23T06:23:37;1.40;;;1.40;;
16900;SDS011;8567;52.540;6.434;2024-02-23T06:26:04;1.65;;;1.55;;
16900;SDS011;8567;52.540;6.434;2024-02-23T06:28:31;1.80;;;1.70;;
16900;SDS011;8567;52.540;6.434;2024-02-23T06:30:59;1.80;;;1.70;;
16900;SDS011;8567;52.540;6.434;2024-02-23T06:33:27;1.65;;;1.65;;
16900;SDS011;8567;52.540;6.434;2024-02-23T06:35:54;1.50;;;1.50;;
16900;SDS011;8567;52.540;6.434;2024-02-23T06:38:21;1.75;;;1.67;;
16900;SDS011;8567;52.540;6.434;2024-02-23T06:40:48;1.80;;;1.70;;
16900;SDS011;8567;52.540;6.434;2024-02-23T06:43:15;1.63;;;1.60;;
16900;SDS011;8567;52.540;6.434;2024-02-23T06:45:42;1.75;;;1.65;;
16900;SDS011;8567;52.540;6.434;2024-02-23T06:48:09;1.65;;;1.55;;
16900;SDS011;8567;52.540;6.434;2024-02-23T06:50:37;1.75;;;1.65;;
16900;SDS011;8567;52.540;6.434;2024-02-23T06:53:04;1.63;;;1.60;;
16900;SDS011;8567;52.540;6.434;2024-02-23T06:55:31;2.47;;;2.38;;
16900;SDS011;8567;52.540;6.434;2024-02-23T06:57:59;2.35;;;1.67;;
16900;SDS011;8567;52.540;6.434;2024-02-23T07:00:25;1.60;;;1.50;;
16900;SDS011;8567;52.540;6.434;2024-02-23T07:02:52;2.17;;;1.80;;
16900;SDS011;8567;52.540;6.434;2024-02-23T07:05:19;2.22;;;2.03;;
16900;SDS011;8567;52.540;6.434;2024-02-23T07:07:47;2.65;;;2.45;;
16900;SDS011;8567;52.540;6.434;2024-02-23T07:10:14;1.95;;;1.85;;
16900;SDS011;8567;52.540;6.434;2024-02-23T07:12:43;4.53;;;2.10;;
16900;SDS011;8567;52.540;6.434;2024-02-23T07:15:09;5.03;;;2.10;;
16900;SDS011;8567;52.540;6.434;2024-02-23T07:17:36;2.63;;;2.40;;
16900;SDS011;8567;52.540;6.434;2024-02-23T07:20:03;2.83;;;2.60;;
16900;SDS011;8567;52.540;6.434;2024-02-23T07:22:31;4.78;;;3.08;;
16900;SDS011;8567;52.540;6.434;2024-02-23T07:24:59;4.47;;;3.10;;
16900;SDS011;8567;52.540;6.434;2024-02-23T07:27:29;6.18;;;3.00;;
16900;SDS011;8567;52.540;6.434;2024-02-23T07:29:56;4.30;;;2.90;;
16900;SDS011;8567;52.540;6.434;2024-02-23T07:32:22;6.57;;;3.65;;
16900;SDS011;8567;52.540;6.434;2024-02-23T07:34:50;3.22;;;2.72;;
16900;SDS011;8567;52.540;6.434;2024-02-23T07:37:17;9.15;;;4.18;;
16900;SDS011;8567;52.540;6.434;2024-02-23T07:39:44;6.20;;;4.20;;
16900;SDS011;8567;52.540;6.434;2024-02-23T07:42:14;8.40;;;4.88;;
16900;SDS011;8567;52.540;6.434;2024-02-23T07:44:43;9.68;;;5.05;;
16900;SDS011;8567;52.540;6.434;2024-02-23T07:47:10;14.18;;;6.60;;
16900;SDS011;8567;52.540;6.434;2024-02-23T07:49:37;13.65;;;6.13;;
16900;SDS011;8567;52.540;6.434;2024-02-23T07:52:06;10.23;;;5.93;;
16900;SDS011;8567;52.540;6.434;2024-02-23T07:54:33;10.05;;;5.35;;
16900;SDS011;8567;52.540;6.434;2024-02-23T07:56:59;9.73;;;4.78;;
16900;SDS011;8567;52.540;6.434;2024-02-23T07:59:27;7.50;;;5.13;;
16900;SDS011;8567;52.540;6.434;2024-02-23T08:01:54;6.53;;;4.45;;
16900;SDS011;8567;52.540;6.434;2024-02-23T08:04:21;8.60;;;4.43;;
16900;SDS011;8567;52.540;6.434;2024-02-23T08:06:48;7.82;;;4.03;;
16900;SDS011;8567;52.540;6.434;2024-02-23T08:09:16;10.25;;;4.28;;
16900;SDS011;8567;52.540;6.434;2024-02-23T08:11:43;6.10;;;3.63;;
16900;SDS011;8567;52.540;6.434;2024-02-23T08:14:11;7.80;;;3.55;;
16900;SDS011;8567;52.540;6.434;2024-02-23T08:16:39;6.45;;;4.00;;
16900;SDS011;8567;52.540;6.434;2024-02-23T08:19:06;5.10;;;3.50;;
16900;SDS011;8567;52.540;6.434;2024-02-23T08:21:33;5.38;;;3.47;;
16900;SDS011;8567;52.540;6.434;2024-02-23T08:24:00;8.50;;;3.72;;
16900;SDS011;8567;52.540;6.434;2024-02-23T08:26:27;5.28;;;3.33;;
16900;SDS011;8567;52.540;6.434;2024-02-23T08:28:54;5.43;;;3.05;;
16900;SDS011;8567;52.540;6.434;2024-02-23T08:31:21;3.92;;;2.63;;
16900;SDS011;8567;52.540;6.434;2024-02-23T08:33:49;3.95;;;2.80;;
16900;SDS011;8567;52.540;6.434;2024-02-23T08:36:16;4.75;;;2.83;;
16900;SDS011;8567;52.540;6.434;2024-02-23T08:38:43;2.88;;;2.58;;
16900;SDS011;8567;52.540;6.434;2024-02-23T08:41:10;4.35;;;2.70;;
16900;SDS011;8567;52.540;6.434;2024-02-23T08:43:37;3.05;;;2.60;;
16900;SDS011;8567;52.540;6.434;2024-02-23T08:46:04;3.10;;;2.80;;
16900;SDS011;8567;52.540;6.434;2024-02-23T08:48:31;3.75;;;2.35;;
16900;SDS011;8567;52.540;6.434;2024-02-23T08:50:59;3.90;;;2.45;;
16900;SDS011;8567;52.540;6.434;2024-02-23T08:53:26;3.17;;;2.40;;
16900;SDS011;8567;52.540;6.434;2024-02-23T08:55:52;2.40;;;2.20;;
16900;SDS011;8567;52.540;6.434;2024-02-23T08:58:19;2.72;;;2.30;;
16900;SDS011;8567;52.540;6.434;2024-02-23T09:00:46;2.15;;;1.95;;
16900;SDS011;8567;52.540;6.434;2024-02-23T09:03:13;2.33;;;2.08;;
16900;SDS011;8567;52.540;6.434;2024-02-23T09:05:40;3.38;;;2.10;;
16900;SDS011;8567;52.540;6.434;2024-02-23T09:08:09;2.45;;;2.15;;
16900;SDS011;8567;52.540;6.434;2024-02-23T09:10:36;2.65;;;2.10;;
16900;SDS011;8567;52.540;6.434;2024-02-23T09:13:03;3.28;;;2.22;;
16900;SDS011;8567;52.540;6.434;2024-02-23T09:15:31;3.08;;;2.13;;
16900;SDS011;8567;52.540;6.434;2024-02-23T09:17:59;2.20;;;2.00;;
16900;SDS011;8567;52.540;6.434;2024-02-23T09:20:26;2.10;;;2.00;;
16900;SDS011;8567;52.540;6.434;2024-02-23T09:22:53;2.40;;;2.20;;
16900;SDS011;8567;52.540;6.434;2024-02-23T09:25:21;2.42;;;2.15;;
16900;SDS011;8567;52.540;6.434;2024-02-23T09:27:48;2.38;;;1.90;;
16900;SDS011;8567;52.540;6.434;2024-02-23T09:30:15;2.20;;;2.10;;
16900;SDS011;8567;52.540;6.434;2024-02-23T09:32:42;2.30;;;2.10;;
16900;SDS011;8567;52.540;6.434;2024-02-23T09:35:09;2.05;;;1.95;;
16900;SDS011;8567;52.540;6.434;2024-02-23T09:37:36;2.17;;;1.98;;
16900;SDS011;8567;52.540;6.434;2024-02-23T09:40:03;1.92;;;1.83;;
16900;SDS011;8567;52.540;6.434;2024-02-23T09:42:32;1.90;;;1.80;;
16900;SDS011;8567;52.540;6.434;2024-02-23T09:45:00;2.58;;;2.10;;
16900;SDS011;8567;52.540;6.434;2024-02-23T09:47:27;1.98;;;1.88;;
16900;SDS011;8567;52.540;6.434;2024-02-23T09:49:54;2.00;;;1.90;;
16900;SDS011;8567;52.540;6.434;2024-02-23T09:52:22;2.20;;;2.10;;
16900;SDS011;8567;52.540;6.434;2024-02-23T09:54:49;1.92;;;1.83;;
16900;SDS011;8567;52.540;6.434;2024-02-23T09:57:16;2.00;;;1.90;;
16900;SDS011;8567;52.540;6.434;2024-02-23T09:59:45;2.30;;;2.20;;
16900;SDS011;8567;52.540;6.434;2024-02-23T10:02:14;2.00;;;1.90;;
16900;SDS011;8567;52.540;6.434;2024-02-23T10:04:42;1.98;;;1.88;;
16900;SDS011;8567;52.540;6.434;2024-02-23T10:07:10;1.95;;;1.80;;
16900;SDS011;8567;52.540;6.434;2024-02-23T10:09:39;1.80;;;1.70;;
16900;SDS011;8567;52.540;6.434;2024-02-23T10:12:06;2.28;;;2.08;;
16900;SDS011;8567;52.540;6.434;2024-02-23T10:14:33;2.20;;;2.00;;
16900;SDS011;8567;52.540;6.434;2024-02-23T10:17:02;1.85;;;1.75;;
16900;SDS011;8567;52.540;6.434;2024-02-23T10:19:29;1.98;;;1.88;;
16900;SDS011;8567;52.540;6.434;2024-02-23T10:21:55;2.00;;;1.90;;
16900;SDS011;8567;52.540;6.434;2024-02-23T10:24:23;1.75;;;1.65;;
16900;SDS011;8567;52.540;6.434;2024-02-23T10:26:50;2.05;;;1.95;;
16900;SDS011;8567;52.540;6.434;2024-02-23T10:29:17;1.98;;;1.88;;
16900;SDS011;8567;52.540;6.434;2024-02-23T10:31:44;3.40;;;1.80;;
16900;SDS011;8567;52.540;6.434;2024-02-23T10:34:17;2.13;;;2.00;;
16900;SDS011;8567;52.540;6.434;2024-02-23T10:36:45;1.80;;;1.70;;
16900;SDS011;8567;52.540;6.434;2024-02-23T10:39:15;2.00;;;1.90;;
16900;SDS011;8567;52.540;6.434;2024-02-23T10:41:46;1.98;;;1.88;;
16900;SDS011;8567;52.540;6.434;2024-02-23T10:44:18;2.10;;;2.00;;
16900;SDS011;8567;52.540;6.434;2024-02-23T10:46:45;2.15;;;1.70;;
16900;SDS011;8567;52.540;6.434;2024-02-23T10:49:12;1.90;;;1.80;;
16900;SDS011;8567;52.540;6.434;2024-02-23T10:51:45;1.92;;;1.83;;
16900;SDS011;8567;52.540;6.434;2024-02-23T10:54:14;1.80;;;1.70;;
16900;SDS011;8567;52.540;6.434;2024-02-23T10:56:44;1.80;;;1.70;;
16900;SDS011;8567;52.540;6.434;2024-02-23T10:59:13;1.63;;;1.52;;
16900;SDS011;8567;52.540;6.434;2024-02-23T11:01:41;1.88;;;1.77;;
16900;SDS011;8567;52.540;6.434;2024-02-23T11:04:08;2.00;;;1.90;;
16900;SDS011;8567;52.540;6.434;2024-02-23T11:06:37;1.70;;;1.60;;
16900;SDS011;8567;52.540;6.434;2024-02-23T11:09:07;1.90;;;1.80;;
16900;SDS011;8567;52.540;6.434;2024-02-23T11:11:34;1.88;;;1.77;;
16900;SDS011;8567;52.540;6.434;2024-02-23T11:14:03;1.80;;;1.70;;
16900;SDS011;8567;52.540;6.434;2024-02-23T11:16:34;1.65;;;1.55;;
16900;SDS011;8567;52.540;6.434;2024-02-23T11:19:06;1.92;;;1.83;;
16900;SDS011;8567;52.540;6.434;2024-02-23T11:21:34;1.52;;;1.50;;
16900;SDS011;8567;52.540;6.434;2024-02-23T11:24:03;1.60;;;1.50;;
16900;SDS011;8567;52.540;6.434;2024-02-23T11:26:31;1.90;;;1.80;;
16900;SDS011;8567;52.540;6.434;2024-02-23T11:28:58;2.08;;;1.52;;
16900;SDS011;8567;52.540;6.434;2024-02-23T11:31:35;2.00;;;1.90;;
16900;SDS011;8567;52.540;6.434;2024-02-23T11:34:07;1.90;;;1.80;;
16900;SDS011;8567;52.540;6.434;2024-02-23T11:36:34;2.00;;;1.90;;
16900;SDS011;8567;52.540;6.434;2024-02-23T11:39:05;2.30;;;2.20;;
16900;SDS011;8567;52.540;6.434;2024-02-23T11:41:31;2.00;;;1.90;;
16900;SDS011;8567;52.540;6.434;2024-02-23T11:43:58;1.80;;;1.70;;
16900;SDS011;8567;52.540;6.434;2024-02-23T11:46:25;1.77;;;1.67;;
16900;SDS011;8567;52.540;6.434;2024-02-23T11:48:52;1.85;;;1.75;;
16900;SDS011;8567;52.540;6.434;2024-02-23T11:51:19;1.88;;;1.77;;
16900;SDS011;8567;52.540;6.434;2024-02-23T11:53:48;1.70;;;1.58;;
16900;SDS011;8567;52.540;6.434;2024-02-23T11:56:15;2.08;;;1.92;;
16900;SDS011;8567;52.540;6.434;2024-02-23T11:58:43;1.90;;;1.80;;
16900;SDS011;8567;52.540;6.434;2024-02-23T12:01:10;1.85;;;1.75;;
16900;SDS011;8567;52.540;6.434;2024-02-23T12:03:37;1.92;;;1.83;;
16900;SDS011;8567;52.540;6.434;2024-02-23T12:06:04;1.80;;;1.70;;
16900;SDS011;8567;52.540;6.434;2024-02-23T12:08:33;1.90;;;1.80;;
16900;SDS011;8567;52.540;6.434;2024-02-23T12:11:05;2.00;;;1.90;;
16900;SDS011;8567;52.540;6.434;2024-02-23T12:13:33;1.80;;;1.70;;
16900;SDS011;8567;52.540;6.434;2024-02-23T12:16:00;1.80;;;1.70;;
16900;SDS011;8567;52.540;6.434;2024-02-23T12:18:28;1.77;;;1.67;;
16900;SDS011;8567;52.540;6.434;2024-02-23T12:20:58;1.83;;;1.73;;
16900;SDS011;8567;52.540;6.434;2024-02-23T12:23:26;1.67;;;1.58;;
16900;SDS011;8567;52.540;6.434;2024-02-23T12:25:53;1.60;;;1.50;;
16900;SDS011;8567;52.540;6.434;2024-02-23T12:28:22;1.77;;;1.67;;
16900;SDS011;8567;52.540;6.434;2024-02-23T12:30:58;1.80;;;1.70;;
16900;SDS011;8567;52.540;6.434;2024-02-23T12:33:27;1.77;;;1.70;;
16900;SDS011;8567;52.540;6.434;2024-02-23T12:35:55;1.95;;;1.85;;
16900;SDS011;8567;52.540;6.434;2024-02-23T12:38:22;1.65;;;1.65;;
16900;SDS011;8567;52.540;6.434;2024-02-23T12:40:49;1.98;;;1.88;;
16900;SDS011;8567;52.540;6.434;2024-02-23T12:43:16;1.45;;;1.42;;
16900;SDS011;8567;52.540;6.434;2024-02-23T12:45:47;1.80;;;1.70;;
16900;SDS011;8567;52.540;6.434;2024-02-23T12:48:15;1.70;;;1.60;;
16900;SDS011;8567;52.540;6.434;2024-02-23T12:50:42;1.40;;;1.40;;
16900;SDS011;8567;52.540;6.434;2024-02-23T12:53:09;1.80;;;1.70;;
16900;SDS011;8567;52.540;6.434;2024-02-23T12:55:37;1.70;;;1.60;;
16900;SDS011;8567;52.540;6.434;2024-02-23T12:58:04;1.40;;;1.38;;
16900;SDS011;8567;52.540;6.434;2024-02-23T13:00:31;1.70;;;1.60;;
16900;SDS011;8567;52.540;6.434;2024-02-23T13:02:59;1.73;;;1.63;;
16900;SDS011;8567;52.540;6.434;2024-02-23T13:05:26;1.80;;;1.70;;
16900;SDS011;8567;52.540;6.434;2024-02-23T13:07:53;1.63;;;1.52;;
16900;SDS011;8567;52.540;6.434;2024-02-23T13:10:20;1.48;;;1.48;;
16900;SDS011;8567;52.540;6.434;2024-02-23T13:12:47;1.50;;;1.40;;
16900;SDS011;8567;52.540;6.434;2024-02-23T13:15:14;1.33;;;1.33;;
16900;SDS011;8567;52.540;6.434;2024-02-23T13:17:41;1.42;;;1.42;;
16900;SDS011;8567;52.540;6.434;2024-02-23T13:20:10;1.55;;;1.45;;
16900;SDS011;8567;52.540;6.434;2024-02-23T13:22:38;1.48;;;1.40;;
16900;SDS011;8567;52.540;6.434;2024-02-23T13:25:05;1.40;;;1.40;;
16900;SDS011;8567;52.540;6.434;2024-02-23T13:27:32;1.35;;;1.35;;
16900;SDS011;8567;52.540;6.434;2024-02-23T13:29:59;1.65;;;1.55;;
16900;SDS011;8567;52.540;6.434;2024-02-23T13:32:26;1.35;;;1.35;;
16900;SDS011;8567;52.540;6.434;2024-02-23T13:34:53;1.65;;;1.65;;
16900;SDS011;8567;52.540;6.434;2024-02-23T13:37:21;1.25;;;1.25;;
16900;SDS011;8567;52.540;6.434;2024-02-23T13:39:48;1.40;;;1.40;;
16900;SDS011;8567;52.540;6.434;2024-02-23T13:42:15;1.35;;;1.33;;
16900;SDS011;8567;52.540;6.434;2024-02-23T13:44:42;1.80;;;1.70;;
16900;SDS011;8567;52.540;6.434;2024-02-23T13:47:09;1.50;;;1.50;;
16900;SDS011;8567;52.540;6.434;2024-02-23T13:49:38;1.50;;;1.48;;
16900;SDS011;8567;52.540;6.434;2024-02-23T13:52:05;1.38;;;1.38;;
16900;SDS011;8567;52.540;6.434;2024-02-23T13:54:33;1.70;;;1.60;;
16900;SDS011;8567;52.540;6.434;2024-02-23T13:57:00;1.35;;;1.35;;
16900;SDS011;8567;52.540;6.434;2024-02-23T13:59:27;1.40;;;1.40;;
16900;SDS011;8567;52.540;6.434;2024-02-23T14:01:54;1.63;;;1.52;;
16900;SDS011;8567;52.540;6.434;2024-02-23T14:04:21;1.60;;;1.50;;
16900;SDS011;8567;52.540;6.434;2024-02-23T14:06:48;1.55;;;1.45;;
16900;SDS011;8567;52.540;6.434;2024-02-23T14:09:15;1.50;;;1.50;;
16900;SDS011;8567;52.540;6.434;2024-02-23T14:11:43;1.60;;;1.50;;
16900;SDS011;8567;52.540;6.434;2024-02-23T14:14:10;1.40;;;1.40;;
16900;SDS011;8567;52.540;6.434;2024-02-23T14:16:37;1.60;;;1.60;;
16900;SDS011;8567;52.540;6.434;2024-02-23T14:19:04;1.55;;;1.45;;
16900;SDS011;8567;52.540;6.434;2024-02-23T14:21:30;1.50;;;1.40;;
16900;SDS011;8567;52.540;6.434;2024-02-23T14:23:57;1.42;;;1.42;;
16900;SDS011;8567;52.540;6.434;2024-02-23T14:26:24;1.50;;;1.50;;
16900;SDS011;8567;52.540;6.434;2024-02-23T14:28:52;1.55;;;1.50;;
16900;SDS011;8567;52.540;6.434;2024-02-23T14:31:19;1.50;;;1.50;;
16900;SDS011;8567;52.540;6.434;2024-02-23T14:33:48;1.40;;;1.40;;
16900;SDS011;8567;52.540;6.434;2024-02-23T14:36:16;1.60;;;1.50;;
16900;SDS011;8567;52.540;6.434;2024-02-23T14:38:43;1.40;;;1.40;;
16900;SDS011;8567;52.540;6.434;2024-02-23T14:41:09;1.50;;;1.50;;
16900;SDS011;8567;52.540;6.434;2024-02-23T14:43:37;1.48;;;1.48;;
16900;SDS011;8567;52.540;6.434;2024-02-23T14:46:05;1.48;;;1.48;;
16900;SDS011;8567;52.540;6.434;2024-02-23T14:48:34;1.38;;;1.38;;
16900;SDS011;8567;52.540;6.434;2024-02-23T14:51:01;1.60;;;1.50;;
16900;SDS011;8567;52.540;6.434;2024-02-23T14:53:29;1.55;;;1.45;;
16900;SDS011;8567;52.540;6.434;2024-02-23T14:55:56;1.50;;;1.50;;
16900;SDS011;8567;52.540;6.434;2024-02-23T14:58:23;1.52;;;1.52;;
16900;SDS011;8567;52.540;6.434;2024-02-23T15:00:50;1.40;;;1.40;;